Time;durP1;ratioP1;P1;durP2;ratioP2;P2;SDS_P1;SDS_P2;PMS_P1;PMS_P2;Temp;Humidity;BMP_temperature;BMP_pressure;BME280_temperature;BME280_humidity;BME280_pressure;Samples;Min_cycle;Max_cycle;Signal;HPM_P1;HPM_P2
2021/04/12 00:02:00;;;;;;;6.80;5.20;;;;;;;12.06;54.83;100182.28;115379;1199;101614;-85
2021/04/12 00:04:35;;;;;;;9.55;5.65;;;;;;;12.05;54.66;100177.13;115297;1199;103040;-85
2021/04/12 00:07:10;;;;;;;9.63;5.90;;;;;;;12.04;54.84;100172.80;115523;1200;103753;-85
2021/04/12 00:09:47;;;;;;;8.27;5.17;;;;;;;12.03;54.65;100171.95;115281;1199;103015;-84
2021/04/12 00:12:23;;;;;;;10.20;5.33;;;;;;;12.03;54.47;100171.95;115255;1198;103060;-85
2021/04/12 00:14:55;;;;;;;8.83;5.03;;;;;;;12.04;54.74;100171.05;115303;1198;103104;-84
2021/04/12 00:17:34;;;;;;;8.07;5.40;;;;;;;12.04;54.69;100162.35;115293;1199;103001;-84
2021/04/12 00:20:08;;;;;;;8.83;5.60;;;;;;;12.04;54.47;100167.58;115480;1197;103072;-84
2021/04/12 00:22:54;;;;;;;9.20;5.23;;;;;;;12.04;54.42;100167.58;115223;1200;103000;-84
2021/04/12 00:25:33;;;;;;;9.17;5.80;;;;;;;12.05;54.36;100164.05;115304;1198;103459;-84
2021/04/12 00:28:08;;;;;;;8.57;4.83;;;;;;;12.06;54.17;100161.38;115414;1200;103041;-84
2021/04/12 00:30:44;;;;;;;10.13;5.37;;;;;;;12.04;53.96;100147.52;115536;1199;101819;-84
2021/04/12 00:33:23;;;;;;;10.13;4.73;;;;;;;12.05;54.09;100154.45;115262;1199;103226;-84
2021/04/12 00:36:02;;;;;;;6.90;4.80;;;;;;;12.05;53.74;100143.98;115509;1199;102970;-84
2021/04/12 00:38:52;;;;;;;6.15;4.70;;;;;;;12.05;53.77;100159.67;115213;1199;101994;-84
2021/04/12 00:41:42;;;;;;;8.07;4.60;;;;;;;12.06;53.70;100145.69;115531;1199;103102;-85
2021/04/12 00:44:47;;;;;;;8.97;4.90;;;;;;;12.07;53.55;100151.77;115535;1199;103236;-84
2021/04/12 00:47:46;;;;;;;7.77;5.00;;;;;;;12.06;53.46;100144.84;115529;1199;103037;-84
2021/04/12 00:50:30;;;;;;;9.17;4.50;;;;;;;12.07;53.37;100126.47;115527;1199;102303;-84
2021/04/12 00:53:44;;;;;;;7.23;5.00;;;;;;;12.08;53.36;100143.86;115294;1199;102412;-84
2021/04/12 00:56:37;;;;;;;7.83;4.80;;;;;;;12.08;53.44;100132.55;115029;1202;103725;-84
2021/04/12 00:59:16;;;;;;;7.60;4.30;;;;;;;12.07;53.19;100126.47;115011;1202;103092;-84
2021/04/12 01:01:49;;;;;;;7.03;4.43;;;;;;;12.06;53.15;100127.39;115133;1203;103002;-84
2021/04/12 01:04:47;;;;;;;7.43;4.40;;;;;;;12.06;53.19;100124.78;115012;1201;102019;-84
2021/04/12 01:07:29;;;;;;;6.50;4.40;;;;;;;12.06;53.00;100130.00;114982;1201;102978;-84
2021/04/12 01:10:40;;;;;;;7.00;4.60;;;;;;;12.06;53.13;100134.38;115107;1203;103236;-84
2021/04/12 01:13:19;;;;;;;7.05;4.90;;;;;;;12.05;53.08;100127.45;114996;1203;103114;-84
2021/04/12 01:16:02;;;;;;;7.50;4.60;;;;;;;12.04;52.96;100126.60;115150;1203;102995;-84
2021/04/12 01:18:48;;;;;;;6.90;4.85;;;;;;;12.06;52.97;100137.84;115161;1201;103028;-84
2021/04/12 01:21:53;;;;;;;6.00;4.20;;;;;;;12.06;52.83;100124.78;115132;1203;103164;-84
2021/04/12 01:25:27;;;;;;;7.30;4.33;;;;;;;12.06;52.79;100130.00;115120;1202;103153;-84
2021/04/12 01:28:42;;;;;;;7.03;4.53;;;;;;;12.05;52.73;100132.68;114842;1205;103146;-84
2021/04/12 01:31:27;;;;;;;8.05;4.25;;;;;;;12.05;52.70;100123.08;114875;1203;103261;-84
2021/04/12 01:34:33;;;;;;;6.90;3.90;;;;;;;12.05;52.73;100122.22;114954;1202;103104;-84
2021/04/12 01:37:16;;;;;;;8.10;4.60;;;;;;;12.06;52.63;100129.16;114934;1203;103086;-84
2021/04/12 01:40:02;;;;;;;10.90;4.90;;;;;;;12.05;52.55;100115.23;115111;1202;103338;-84
2021/04/12 01:42:47;;;;;;;11.00;4.90;;;;;;;12.04;52.66;100123.98;114927;1202;103104;-84
2021/04/12 01:45:48;;;;;;;8.70;4.60;;;;;;;12.05;52.58;100122.22;114968;1203;103072;-84
2021/04/12 01:48:57;;;;;;;9.20;4.77;;;;;;;12.04;52.72;100121.38;114945;1202;103236;-84
2021/04/12 01:51:43;;;;;;;9.87;4.70;;;;;;;12.05;52.49;100127.45;114957;1202;103252;-84
2021/04/12 01:54:32;;;;;;;6.65;4.30;;;;;;;12.05;52.40;100122.22;114922;1203;103069;-84
2021/04/12 01:57:18;;;;;;;6.40;4.40;;;;;;;12.04;52.46;100121.38;115062;1202;103206;-84
2021/04/12 02:00:16;;;;;;;7.93;4.90;;;;;;;12.03;52.49;100124.05;115153;1202;103091;-85
2021/04/12 02:03:15;;;;;;;10.27;4.40;;;;;;;12.01;52.27;100120.62;115340;1199;102980;-84
2021/04/12 02:06:00;;;;;;;;;;;;;;;12.00;52.17;100108.47;115507;1204;102973;-84
2021/04/12 02:08:36;;;;;;;8.23;4.83;;;;;;;11.95;52.30;100111.27;115294;1198;103145;-84
2021/04/12 02:11:22;;;;;;;6.93;4.43;;;;;;;11.92;52.34;100111.40;115238;1199;103162;-84
2021/04/12 02:13:52;;;;;;;8.10;4.87;;;;;;;11.89;52.26;100108.06;115540;1198;103169;-84
2021/04/12 02:16:33;;;;;;;6.43;4.50;;;;;;;11.85;52.38;100107.34;115525;1200;103012;-85
2021/04/12 02:19:06;;;;;;;7.03;3.90;;;;;;;11.82;52.47;100104.82;115560;1199;103057;-84
2021/04/12 02:21:53;;;;;;;8.93;4.93;;;;;;;11.78;52.24;100108.44;115261;1200;103024;-84
2021/04/12 02:24:23;;;;;;;7.60;4.65;;;;;;;11.73;52.49;100099.94;115298;1200;102973;-85
2021/04/12 02:27:20;;;;;;;8.57;4.70;;;;;;;11.68;52.53;100107.11;115400;1200;103030;-84
2021/04/12 02:30:02;;;;;;;5.67;4.30;;;;;;;11.65;52.56;100112.43;115257;1200;103073;-84
2021/04/12 02:32:47;;;;;;;7.00;4.07;;;;;;;11.60;52.48;100103.93;115281;1199;103073;-84
2021/04/12 02:35:41;;;;;;;6.47;4.20;;;;;;;11.56;52.79;100112.80;115535;1200;102970;-84
2021/04/12 02:38:13;;;;;;;5.70;3.90;;;;;;;11.51;52.76;100105.15;115304;1199;103056;-84
2021/04/12 02:41:00;;;;;;;7.23;4.20;;;;;;;11.48;52.94;100107.85;115309;1198;103137;-85
2021/04/12 02:43:51;;;;;;;10.20;4.65;;;;;;;11.44;52.94;100104.51;115540;1199;101939;-84
2021/04/12 02:46:50;;;;;;;7.03;4.70;;;;;;;11.41;53.04;100099.41;115304;1199;103062;-84
2021/04/12 02:49:36;;;;;;;7.80;4.30;;;;;;;11.37;52.94;100102.20;115505;1199;103028;-84
2021/04/12 02:52:33;;;;;;;9.10;4.90;;;;;;;11.34;52.90;100092.73;115520;1200;103031;-84
2021/04/12 02:55:19;;;;;;;5.63;4.23;;;;;;;11.32;53.09;100104.14;115523;1197;103085;-84
2021/04/12 02:58:14;;;;;;;7.10;4.70;;;;;;;11.30;53.19;100101.56;115450;1199;103002;-84
2021/04/12 03:00:45;;;;;;;8.57;4.60;;;;;;;11.27;53.31;100106.90;115467;1199;103128;-84
2021/04/12 03:03:30;;;;;;;7.60;4.53;;;;;;;11.26;53.13;100102.59;115373;1199;102983;-84
2021/04/12 03:06:10;;;;;;;8.10;4.30;;;;;;;11.25;53.18;100107.88;115270;1199;103031;-84
2021/04/12 03:09:07;;;;;;;8.75;4.50;;;;;;;11.23;53.54;100110.54;115279;1199;103095;-84
2021/04/12 03:12:17;;;;;;;6.10;4.03;;;;;;;11.22;53.36;100100.16;115222;1200;103014;-84
2021/04/12 03:15:23;;;;;;;7.60;4.40;;;;;;;11.19;53.24;100101.13;115163;1200;103133;-84
2021/04/12 03:18:41;;;;;;;9.90;4.60;;;;;;;11.17;53.35;100111.63;115198;1200;103312;-84
2021/04/12 03:21:20;;;;;;;6.70;4.10;;;;;;;11.15;53.25;100107.38;114894;1203;102104;-84
2021/04/12 03:24:26;;;;;;;7.70;3.95;;;;;;;11.13;53.41;100114.38;114934;1203;105242;-84
2021/04/12 03:27:05;;;;;;;7.90;4.20;;;;;;;11.12;53.49;100116.14;114929;1202;103104;-84
2021/04/12 03:29:56;;;;;;;7.00;4.60;;;;;;;11.11;53.41;100117.05;114915;1203;103058;-84
2021/04/12 03:32:59;;;;;;;9.43;4.30;;;;;;;11.10;53.33;100109.28;114895;1203;103133;-84
2021/04/12 03:35:56;;;;;;;6.00;4.20;;;;;;;11.10;53.71;100112.73;114762;1206;103248;-84
2021/04/12 03:38:32;;;;;;;11.17;4.97;;;;;;;11.11;53.61;100113.59;114770;1206;103159;-84
2021/04/12 03:41:13;;;;;;;10.20;5.60;;;;;;;11.11;53.52;100105.76;114830;1206;103660;-84
2021/04/12 03:43:59;;;;;;;9.30;5.30;;;;;;;11.12;53.57;100118.75;114713;1206;103182;-84
2021/04/12 03:46:55;;;;;;;12.30;6.20;;;;;;;11.13;53.50;100103.94;114724;1205;103246;-84
2021/04/12 03:50:02;;;;;;;10.25;6.45;;;;;;;11.14;53.67;100105.67;114837;1206;103121;-84
2021/04/12 03:53:03;;;;;;;11.90;6.45;;;;;;;11.16;53.48;100111.69;114842;1203;103121;-84
2021/04/12 03:55:43;;;;;;;10.40;6.70;;;;;;;11.16;53.67;100106.47;114937;1203;103175;-84
2021/04/12 03:58:35;;;;;;;11.60;6.85;;;;;;;11.15;53.71;100103.00;115156;1203;103165;-83
2021/04/12 04:01:16;;;;;;;15.83;7.13;;;;;;;11.15;53.68;100103.00;115169;1201;102822;-84
2021/04/12 04:04:07;;;;;;;12.20;6.85;;;;;;;11.16;54.11;100106.47;115107;1203;103034;-84
2021/04/12 04:06:56;;;;;;;11.30;6.20;;;;;;;11.16;53.90;100104.70;114996;1203;101471;-84
2021/04/12 04:10:02;;;;;;;11.77;6.13;;;;;;;11.17;54.10;100113.39;115166;1199;103127;-84
2021/04/12 04:12:56;;;;;;;10.23;6.47;;;;;;;11.16;53.82;100114.30;115417;1197;103076;-84
2021/04/12 04:15:36;;;;;;;10.70;6.33;;;;;;;11.16;54.28;100119.52;115204;1200;102996;-85
2021/04/12 04:18:25;;;;;;;7.95;5.70;;;;;;;11.16;53.94;100111.69;115551;1199;103085;-85
2021/04/12 04:21:18;;;;;;;11.17;6.30;;;;;;;11.17;54.17;100122.07;115283;1200;103011;-85
2021/04/12 04:23:59;;;;;;;11.30;6.57;;;;;;;11.17;54.29;100116.84;115552;1199;102976;-85
2021/04/12 04:27:00;;;;;;;13.67;6.07;;;;;;;11.18;54.12;100117.70;115303;1199;101610;-84
2021/04/12 04:29:43;;;;;;;11.53;6.57;;;;;;;11.18;54.28;100122.92;115482;1199;101987;-84
2021/04/12 04:32:28;;;;;;;10.37;6.30;;;;;;;11.18;54.55;100138.58;115345;1198;102849;-85
2021/04/12 04:35:10;;;;;;;9.37;6.53;;;;;;;11.19;54.45;100128.08;115619;1199;102922;-85
2021/04/12 04:38:07;;;;;;;8.60;6.30;;;;;;;11.21;54.44;100122.80;115576;1200;102996;-85
2021/04/12 04:41:00;;;;;;;10.47;6.97;;;;;;;11.21;54.48;100120.19;115371;1199;101956;-84
2021/04/12 04:43:54;;;;;;;10.67;6.53;;;;;;;11.22;54.44;100123.66;115313;1199;103267;-85
2021/04/12 04:46:51;;;;;;;13.07;6.47;;;;;;;11.22;54.33;100124.50;115497;1199;103060;-85
2021/04/12 04:49:49;;;;;;;10.97;6.83;;;;;;;11.24;54.24;100122.69;115580;1198;103134;-84
2021/04/12 04:52:36;;;;;;;13.93;7.07;;;;;;;11.25;54.60;100129.61;115453;1199;101268;-84
2021/04/12 04:55:28;;;;;;;11.43;6.30;;;;;;;11.27;54.34;100129.55;115413;1198;101789;-84
2021/04/12 04:58:17;;;;;;;12.27;6.40;;;;;;;11.29;54.56;100125.97;115505;1198;103028;-85
2021/04/12 05:01:11;;;;;;;11.10;6.60;;;;;;;11.32;54.18;100120.66;115318;1199;103082;-84
2021/04/12 05:04:07;;;;;;;10.23;6.00;;;;;;;11.36;54.45;100127.47;115280;1199;103134;-85
2021/04/12 05:06:55;;;;;;;10.07;6.50;;;;;;;11.38;54.18;100111.73;115262;1200;103211;-84
2021/04/12 05:09:41;;;;;;;11.20;5.90;;;;;;;11.41;54.29;100120.30;115551;1199;102966;-84
2021/04/12 05:12:18;;;;;;;14.90;6.27;;;;;;;11.44;54.09;100119.33;115278;1200;102823;-85
2021/04/12 05:14:55;;;;;;;7.70;5.63;;;;;;;11.46;54.09;100123.58;115614;1200;102813;-84
2021/04/12 05:17:52;;;;;;;14.13;5.70;;;;;;;11.50;53.91;100113.89;115563;1199;103424;-84
2021/04/12 05:21:03;;;;;;;10.70;5.80;;;;;;;11.55;53.90;100117.17;115289;1199;103028;-84
2021/04/12 05:23:42;;;;;;;11.33;5.97;;;;;;;11.61;53.85;100124.77;115388;1200;101598;-84
2021/04/12 05:26:31;;;;;;;10.23;5.40;;;;;;;11.70;53.71;100131.41;115464;1199;103044;-84
2021/04/12 05:28:59;;;;;;;8.07;5.10;;;;;;;11.85;53.65;100130.86;115465;1198;103021;-84
2021/04/12 05:32:06;;;;;;;10.27;5.60;;;;;;;12.05;53.45;100123.08;115446;1198;103088;-84
2021/04/12 05:35:04;;;;;;;11.30;5.10;;;;;;;12.64;52.33;100122.36;115089;1203;103434;-85
2021/04/12 05:37:51;;;;;;;17.05;5.80;;;;;;;13.93;51.49;100111.33;115258;1202;103098;-84
2021/04/12 05:40:40;;;;;;;10.80;5.40;;;;;;;15.82;48.32;100101.53;114984;1202;103629;-85
2021/04/12 05:43:16;;;;;;;7.80;5.10;;;;;;;16.69;45.73;100115.77;115064;1202;103124;-84
2021/04/12 05:46:32;;;;;;;13.80;4.90;;;;;;;16.69;44.55;100104.38;115059;1203;103110;-84
2021/04/12 05:49:28;;;;;;;10.67;4.63;;;;;;;18.16;43.88;100096.06;114935;1205;103076;-84
2021/04/12 05:52:24;;;;;;;11.00;4.80;;;;;;;20.11;41.19;100109.72;114847;1206;103191;-84
2021/04/12 05:55:08;;;;;;;9.60;4.60;;;;;;;21.97;37.55;100095.20;114881;1206;103028;-84
2021/04/12 05:58:10;;;;;;;9.70;4.30;;;;;;;23.38;36.02;100086.80;114852;1206;103092;-84
2021/04/12 06:00:47;;;;;;;10.90;4.00;;;;;;;24.63;34.13;100094.13;115007;1205;103111;-84
2021/04/12 06:03:32;;;;;;;8.55;4.20;;;;;;;25.72;30.68;100087.28;115022;1206;101815;-85
2021/04/12 06:06:17;;;;;;;10.55;4.30;;;;;;;26.31;28.71;100085.84;114922;1206;103015;-85
2021/04/12 06:09:03;;;;;;;7.60;4.20;;;;;;;27.00;28.46;100085.06;114932;1205;102992;-85
2021/04/12 06:12:26;;;;;;;11.60;4.20;;;;;;;27.76;26.63;100078.03;115000;1200;102835;-85
2021/04/12 06:15:12;;;;;;;16.30;5.00;;;;;;;28.31;25.43;100091.70;115032;1206;103108;-85
2021/04/12 06:17:54;;;;;;;6.50;4.25;;;;;;;28.55;25.75;100086.36;114768;1205;103034;-86
2021/04/12 06:20:47;;;;;;;6.30;3.97;;;;;;;28.82;23.96;100084.29;114861;1206;101034;-86
2021/04/12 06:24:02;;;;;;;11.17;4.53;;;;;;;28.96;23.66;100090.84;114928;1206;103232;-86
2021/04/12 06:26:39;;;;;;;8.65;4.90;;;;;;;28.40;23.21;100079.16;114946;1203;103169;-86
2021/04/12 06:29:45;;;;;;;7.00;3.90;;;;;;;28.71;24.24;100080.10;115121;1203;103162;-86
2021/04/12 06:32:22;;;;;;;10.60;3.70;;;;;;;29.83;24.17;100062.95;115049;1203;103184;-85
2021/04/12 06:34:59;;;;;;;;;;;;;;;30.61;21.48;100073.47;115057;1207;100929;-85
2021/04/12 06:37:55;;;;;;;12.77;4.23;;;;;;;30.75;22.67;100061.06;115118;1202;103214;-85
2021/04/12 06:40:41;;;;;;;8.90;4.00;;;;;;;31.29;21.61;100076.14;115038;1203;103089;-86
2021/04/12 06:43:12;;;;;;;8.20;4.10;;;;;;;31.19;19.60;100082.63;114946;1203;103490;-86
2021/04/12 06:46:14;;;;;;;7.90;3.95;;;;;;;31.28;21.13;100064.52;114875;1206;103041;-86
2021/04/12 06:49:03;;;;;;;8.05;4.30;;;;;;;31.79;20.71;100068.07;115000;1202;103102;-87
2021/04/12 06:51:45;;;;;;;9.45;4.15;;;;;;;32.09;20.99;100065.24;115148;1201;103149;-86
2021/04/12 06:54:32;;;;;;;9.90;4.00;;;;;;;32.27;20.18;100071.05;115130;1201;103035;-86
2021/04/12 06:57:19;;;;;;;9.53;3.83;;;;;;;32.59;20.00;100071.52;115299;1200;103779;-87
2021/04/12 07:00:25;;;;;;;6.10;3.50;;;;;;;32.83;19.98;100083.77;115289;1202;102091;-87
2021/04/12 07:03:17;;;;;;;5.63;4.10;;;;;;;33.33;19.09;100074.52;115313;1203;103015;-88
2021/04/12 07:06:13;;;;;;;7.90;3.70;;;;;;;32.38;18.16;100081.33;115241;1203;103094;-87
2021/04/12 07:09:19;;;;;;;7.60;3.90;;;;;;;31.50;18.36;100073.50;115345;1203;103302;-88
2021/04/12 07:11:53;;;;;;;6.43;3.70;;;;;;;30.61;19.78;100076.16;115198;1202;103012;-88
2021/04/12 07:14:32;;;;;;;8.57;4.30;;;;;;;29.78;19.69;100073.38;115374;1202;103078;-88
2021/04/12 07:17:26;;;;;;;6.10;3.50;;;;;;;29.27;19.73;100072.95;115295;1199;103036;-88
2021/04/12 07:20:31;;;;;;;9.40;4.00;;;;;;;29.54;20.62;100062.78;115584;1200;103005;-86
2021/04/12 07:23:37;;;;;;;7.90;3.93;;;;;;;29.95;20.43;100072.26;115326;1199;103219;-86
2021/04/12 07:26:29;;;;;;;11.40;4.10;;;;;;;29.95;19.95;100074.95;115583;1199;102064;-85
2021/04/12 07:29:06;;;;;;;6.53;4.00;;;;;;;30.10;19.47;100084.97;115379;1198;101851;-86
2021/04/12 07:31:55;;;;;;;5.70;3.53;;;;;;;30.32;19.42;100081.43;115651;1198;102998;-86
2021/04/12 07:35:01;;;;;;;10.17;3.77;;;;;;;30.40;19.86;100064.39;115518;1200;103140;-86
2021/04/12 07:37:47;;;;;;;7.27;4.30;;;;;;;30.38;19.56;100065.41;115383;1198;103034;-86
2021/04/12 07:40:53;;;;;;;8.90;3.90;;;;;;;30.17;19.63;100065.27;115419;1199;103230;-86
2021/04/12 07:43:59;;;;;;;6.43;4.10;;;;;;;30.04;20.06;100062.33;115398;1200;103009;-87
2021/04/12 07:46:53;;;;;;;4.73;3.60;;;;;;;30.26;20.03;100074.09;115446;1199;101607;-87
2021/04/12 07:49:40;;;;;;;5.93;3.60;;;;;;;30.31;19.81;100064.45;115414;1198;103149;-87
2021/04/12 07:52:26;;;;;;;;;;;;;;;30.76;19.44;100064.59;115412;1206;103907;-87
2021/04/12 07:55:31;;;;;;;9.10;4.10;;;;;;;30.86;19.55;100065.13;115590;1200;103024;-87
2021/04/12 07:58:50;;;;;;;6.20;3.87;;;;;;;30.74;19.37;100072.02;115359;1200;101273;-87
2021/04/12 08:01:53;;;;;;;5.50;3.90;;;;;;;30.55;19.46;100068.80;115596;1198;102973;-87
2021/04/12 08:04:44;;;;;;;8.23;4.10;;;;;;;30.95;19.15;100070.26;115120;1200;103338;-87
2021/04/12 08:07:41;;;;;;;7.05;4.50;;;;;;;30.96;19.59;100077.31;115216;1201;103066;-87
2021/04/12 08:10:20;;;;;;;11.17;4.40;;;;;;;31.01;19.20;100068.67;115298;1203;103178;-87
2021/04/12 08:13:15;;;;;;;5.80;3.93;;;;;;;31.62;20.05;100060.38;115154;1202;103107;-87
2021/04/12 08:15:58;;;;;;;9.20;4.13;;;;;;;31.69;18.95;100062.11;115285;1200;103171;-87
2021/04/12 08:18:33;;;;;;;5.45;3.80;;;;;;;31.67;18.79;100069.55;115191;1203;103721;-87
2021/04/12 08:21:35;;;;;;;5.25;3.90;;;;;;;31.84;19.16;100062.09;115218;1201;103127;-87
2021/04/12 08:24:46;;;;;;;6.93;3.67;;;;;;;31.88;18.78;100060.69;115284;1200;103002;-87
2021/04/12 08:27:47;;;;;;;4.00;3.40;;;;;;;31.59;19.36;100069.66;114966;1203;103002;-87
2021/04/12 08:30:52;;;;;;;7.43;3.80;;;;;;;31.49;18.88;100055.66;115044;1202;103143;-86
2021/04/12 08:33:41;;;;;;;5.55;3.60;;;;;;;31.62;19.11;100060.38;115079;1203;103110;-86
2021/04/12 08:36:57;;;;;;;6.07;3.60;;;;;;;31.66;18.96;100059.80;115061;1203;103213;-86
2021/04/12 08:39:43;;;;;;;8.20;4.70;;;;;;;31.35;18.40;100059.20;115132;1202;103028;-86
2021/04/12 08:42:43;;;;;;;6.80;4.10;;;;;;;30.87;18.69;100074.88;115277;1202;101765;-86
2021/04/12 08:45:52;;;;;;;8.85;4.20;;;;;;;29.66;18.90;100064.06;115133;1203;103123;-86
2021/04/12 08:49:05;;;;;;;7.03;3.80;;;;;;;28.19;20.25;100067.05;114994;1202;103290;-86
2021/04/12 08:52:02;;;;;;;5.80;4.10;;;;;;;27.13;21.29;100073.09;115059;1203;103027;-85
2021/04/12 08:55:03;;;;;;;14.80;4.63;;;;;;;26.34;22.44;100061.47;115056;1202;103088;-85
2021/04/12 08:58:01;;;;;;;8.80;4.55;;;;;;;25.98;22.86;100062.48;115104;1203;101224;-86
2021/04/12 09:00:46;;;;;;;6.40;4.45;;;;;;;25.71;23.35;100060.73;115057;1202;103054;-85
2021/04/12 09:03:45;;;;;;;7.70;4.13;;;;;;;26.06;23.66;100062.58;115047;1201;103127;-85
2021/04/12 09:06:59;;;;;;;6.20;4.03;;;;;;;26.49;23.42;100054.60;115285;1201;103172;-86
2021/04/12 09:09:55;;;;;;;13.85;4.25;;;;;;;27.07;22.78;100059.33;115285;1202;103217;-85
2021/04/12 09:12:28;;;;;;;6.50;3.60;;;;;;;27.83;22.40;100052.23;115349;1201;101483;-86
2021/04/12 09:14:55;;;;;;;5.63;3.40;;;;;;;28.54;21.52;100059.66;115334;1200;103011;-86
2021/04/12 09:18:01;;;;;;;3.70;2.85;;;;;;;28.44;20.64;100053.66;115286;1200;103022;-86
2021/04/12 09:20:48;;;;;;;3.95;2.40;;;;;;;28.42;21.33;100050.31;114945;1205;103079;-86
2021/04/12 09:23:24;;;;;;;5.83;3.40;;;;;;;28.57;21.12;100053.98;115174;1200;102903;-86
2021/04/12 09:26:20;;;;;;;4.83;2.93;;;;;;;29.02;20.12;100058.77;115313;1200;101532;-86
2021/04/12 09:29:42;;;;;;;4.97;3.23;;;;;;;29.12;19.75;100067.47;115185;1203;103025;-87
2021/04/12 09:32:50;;;;;;;6.35;3.65;;;;;;;28.85;20.48;100051.73;115229;1200;103283;-87
2021/04/12 09:35:40;;;;;;;5.45;2.90;;;;;;;28.98;21.18;100045.86;115035;1203;103120;-86
2021/04/12 09:38:37;;;;;;;4.25;3.10;;;;;;;28.96;20.60;100046.04;115044;1203;103098;-86
2021/04/12 09:41:20;;;;;;;;;;;;;;;28.77;20.99;100047.23;115090;1210;103155;-85
2021/04/12 09:44:26;;;;;;;6.85;3.40;;;;;;;28.58;20.82;100039.56;115034;1205;102998;-86
2021/04/12 09:47:31;;;;;;;4.37;3.43;;;;;;;28.42;20.98;100040.41;115031;1203;102817;-86
2021/04/12 09:50:41;;;;;;;5.03;3.43;;;;;;;27.96;20.96;100044.56;115079;1201;103152;-86
2021/04/12 09:53:27;;;;;;;4.60;3.60;;;;;;;27.22;21.39;100039.98;115119;1203;102989;-86
2021/04/12 09:56:37;;;;;;;5.23;3.40;;;;;;;26.87;21.49;100033.77;115195;1203;103069;-86
2021/04/12 09:59:24;;;;;;;6.40;3.90;;;;;;;26.25;21.83;100030.33;115089;1206;103219;-86
2021/04/12 10:02:29;;;;;;;5.53;3.60;;;;;;;26.32;22.21;100044.75;115024;1204;103073;-86
2021/04/12 10:05:16;;;;;;;5.30;3.60;;;;;;;26.40;21.99;100041.34;115107;1203;104820;-86
2021/04/12 10:08:07;;;;;;;5.77;3.63;;;;;;;26.18;22.44;100034.59;115262;1203;102992;-86
2021/04/12 10:10:40;;;;;;;7.25;3.50;;;;;;;26.07;22.81;100034.86;115207;1203;103005;-87
2021/04/12 10:13:28;;;;;;;5.27;3.80;;;;;;;25.80;22.88;100027.75;115267;1201;103194;-86
2021/04/12 10:15:59;;;;;;;;;;;;;;;25.37;23.08;100034.62;115312;1207;103216;-85
2021/04/12 10:18:41;;;;;;;6.55;3.60;;;;;;;25.29;23.13;100037.17;115178;1202;103012;-85
2021/04/12 10:21:15;;;;;;;5.13;3.30;;;;;;;25.52;23.82;100029.61;115271;1202;103111;-85
2021/04/12 10:23:49;;;;;;;5.30;3.77;;;;;;;25.50;23.76;100035.11;115448;1202;102380;-86
2021/04/12 10:26:25;;;;;;;5.57;3.33;;;;;;;24.93;23.18;100041.52;115149;1203;103152;-86
2021/04/12 10:29:03;;;;;;;6.90;3.60;;;;;;;24.10;23.84;100051.91;115142;1203;101133;-86
2021/04/12 10:31:38;;;;;;;4.57;3.60;;;;;;;23.62;24.54;100043.03;115303;1201;102826;-85
2021/04/12 10:34:24;;;;;;;10.87;6.90;;;;;;;23.51;25.13;100042.13;115406;1201;103162;-85
2021/04/12 10:37:08;;;;;;;7.17;4.73;;;;;;;23.79;25.09;100055.67;115503;1199;103203;-87
2021/04/12 10:39:50;;;;;;;6.50;3.43;;;;;;;23.20;25.24;100051.16;115628;1199;103124;-86
2021/04/12 10:42:45;;;;;;;7.40;4.13;;;;;;;22.81;25.80;100053.63;115525;1200;103002;-87
2021/04/12 10:45:26;;;;;;;7.83;3.90;;;;;;;22.75;26.14;100054.13;115355;1199;103097;-86
2021/04/12 10:48:25;;;;;;;7.73;4.07;;;;;;;22.50;26.01;100049.23;115403;1199;103012;-86
2021/04/12 10:51:22;;;;;;;7.00;3.43;;;;;;;22.03;26.23;100054.02;115462;1199;103089;-87
2021/04/12 10:54:05;;;;;;;8.83;3.57;;;;;;;21.61;26.96;100055.73;115351;1198;102424;-87
2021/04/12 10:56:42;;;;;;;6.93;3.70;;;;;;;21.30;27.58;100049.38;115362;1199;103918;-87
2021/04/12 10:59:24;;;;;;;5.80;3.30;;;;;;;21.06;27.71;100049.50;115452;1199;103162;-86
2021/04/12 11:02:01;;;;;;;5.97;3.33;;;;;;;21.00;27.78;100045.50;115432;1197;103107;-86
2021/04/12 11:04:33;;;;;;;8.07;3.23;;;;;;;20.77;28.29;100062.36;115410;1198;103037;-86
2021/04/12 11:07:09;;;;;;;5.30;3.40;;;;;;;20.72;28.01;100052.13;115495;1200;102976;-86
2021/04/12 11:09:46;;;;;;;6.10;3.30;;;;;;;20.77;28.19;100059.71;115348;1199;103168;-86
2021/04/12 11:12:38;;;;;;;6.10;2.97;;;;;;;20.69;28.21;100046.22;115509;1198;103076;-86
2021/04/12 11:15:28;;;;;;;4.17;3.47;;;;;;;20.79;28.23;100041.88;115374;1199;103025;-86
2021/04/12 11:18:28;;;;;;;6.53;3.30;;;;;;;20.64;28.80;100064.26;115416;1199;103038;-87
2021/04/12 11:21:14;;;;;;;4.53;3.53;;;;;;;20.24;29.04;100051.37;115344;1199;103166;-87
2021/04/12 11:24:03;;;;;;;6.00;3.50;;;;;;;20.15;28.95;100062.66;115509;1199;103034;-88
2021/04/12 11:26:34;;;;;;;6.43;3.80;;;;;;;20.18;29.63;100054.48;115668;1199;103075;-89
2021/04/12 11:29:21;;;;;;;5.67;3.30;;;;;;;20.23;29.24;100062.92;115536;1198;103012;-86
2021/04/12 11:31:52;;;;;;;5.70;4.00;;;;;;;20.18;29.53;100071.22;115462;1199;103604;-89
2021/04/12 11:34:36;;;;;;;6.10;3.70;;;;;;;20.16;29.56;100064.36;115763;1199;103056;-88
2021/04/12 11:37:25;;;;;;;6.13;3.83;;;;;;;20.10;30.07;100052.39;115424;1198;102887;-88
2021/04/12 11:40:02;;;;;;;5.37;3.90;;;;;;;20.20;30.10;100060.51;115630;1198;103477;-86
2021/04/12 11:42:38;;;;;;;8.77;4.27;;;;;;;20.24;29.99;100064.61;115379;1197;103027;-85
2021/04/12 11:45:14;;;;;;;8.63;3.83;;;;;;;20.27;29.97;100056.43;115437;1198;103950;-87
2021/04/12 11:48:13;;;;;;;7.70;3.90;;;;;;;20.22;30.12;100056.78;115592;1197;103082;-86
2021/04/12 11:50:55;;;;;;;6.03;3.53;;;;;;;20.12;29.53;100044.37;115482;1199;102813;-86
2021/04/12 11:53:41;;;;;;;8.07;4.03;;;;;;;20.04;30.15;100049.38;115446;1199;104867;-85
2021/04/12 11:56:31;;;;;;;4.43;3.50;;;;;;;20.02;30.48;100040.70;115370;1199;104270;-86
2021/04/12 11:59:23;;;;;;;5.07;3.77;;;;;;;20.19;30.26;100048.23;115350;1199;102977;-85
2021/04/12 12:02:00;;;;;;;4.83;3.67;;;;;;;20.30;30.34;100045.63;115714;1199;103124;-86
2021/04/12 12:04:42;;;;;;;4.97;3.80;;;;;;;20.36;30.29;100045.16;115753;1200;103136;-87
2021/04/12 12:07:34;;;;;;;5.47;3.67;;;;;;;20.44;30.36;100044.59;115393;1197;103227;-87
2021/04/12 12:10:21;;;;;;;7.23;3.53;;;;;;;20.54;30.15;100047.39;115750;1198;103028;-87
2021/04/12 12:13:01;;;;;;;6.60;3.47;;;;;;;20.45;29.81;100049.77;115461;1198;103020;-86
2021/04/12 12:15:56;;;;;;;6.33;3.77;;;;;;;20.44;29.95;100048.08;115446;1200;103062;-86
2021/04/12 12:18:28;;;;;;;8.83;4.20;;;;;;;20.47;30.55;100031.98;115449;1200;102958;-86
2021/04/12 12:21:28;;;;;;;7.13;3.77;;;;;;;20.41;30.39;100043.02;115440;1198;103022;-86
2021/04/12 12:24:27;;;;;;;6.10;3.93;;;;;;;20.18;30.46;100054.48;115181;1201;103037;-86
2021/04/12 12:27:05;;;;;;;5.47;4.00;;;;;;;19.86;30.59;100043.64;115315;1203;103056;-86
2021/04/12 12:29:41;;;;;;;5.40;3.77;;;;;;;19.68;30.98;100043.19;115275;1201;103094;-86
2021/04/12 12:32:17;;;;;;;5.53;4.10;;;;;;;19.54;31.75;100043.34;115322;1203;103207;-86
2021/04/12 12:35:17;;;;;;;6.20;3.60;;;;;;;19.41;31.85;100039.88;115254;1203;103159;-86
2021/04/12 12:38:20;;;;;;;6.00;3.80;;;;;;;19.36;32.02;100041.98;115176;1201;103015;-87
2021/04/12 12:41:04;;;;;;;6.15;3.95;;;;;;;19.17;32.05;100053.03;115171;1202;103149;-86
2021/04/12 12:43:38;;;;;;;6.63;4.20;;;;;;;19.01;32.58;100047.97;115189;1202;103131;-86
2021/04/12 12:46:08;;;;;;;5.70;3.45;;;;;;;18.92;32.50;100059.20;115178;1202;105038;-86
2021/04/12 12:48:47;;;;;;;6.40;3.87;;;;;;;18.78;32.91;100061.95;115085;1202;103052;-86
2021/04/12 12:51:16;;;;;;;7.70;4.30;;;;;;;18.60;33.13;100059.59;115087;1201;103286;-86